Time;durP1;ratioP1;P1;durP2;ratioP2;P2;SDS_P1;SDS_P2;PMS_P1;PMS_P2;Temp;Humidity;BMP_temperature;BMP_pressure;BME280_temperature;BME280_humidity;BME280_pressure;Samples;Min_cycle;Max_cycle;Signal;HPM_P1;HPM_P2
2021/12/12 00:00:57;;;;;;;24.85;15.93;;;;;;;;;;5073905;28;20356;-77
2021/12/12 00:03:35;;;;;;;23.75;14.23;;;;;;;;;;5072862;28;20380;-78
2021/12/12 00:06:10;;;;;;;19.98;13.40;;;;;;;;;;5073646;28;20028;-77
2021/12/12 00:08:36;;;;;;;23.00;14.40;;;;;;;;;;5072962;28;20383;-78
2021/12/12 00:11:07;;;;;;;27.75;15.85;;;;;;;;;;5073591;28;20094;-78
2021/12/12 00:13:34;;;;;;;;;;;;;;;;;;5040018;28;20115;-78
2021/12/12 00:15:59;;;;;;;29.08;18.42;;;;;;;;;;5073871;28;19940;-77
2021/12/12 00:18:25;;;;;;;25.88;15.60;;;;;;;;;;5072407;28;20434;-77
2021/12/12 00:20:50;;;;;;;22.63;12.75;;;;;;;;;;5073758;28;20020;-77
2021/12/12 00:23:17;;;;;;;20.08;12.80;;;;;;;;;;5076100;28;20021;-77
2021/12/12 00:25:48;;;;;;;28.00;14.55;;;;;;;;;;5076527;28;20035;-77
2021/12/12 00:28:15;;;;;;;32.20;14.90;;;;;;;;;;5077551;28;20489;-77
2021/12/12 00:30:42;;;;;;;46.35;17.08;;;;;;;;;;5077643;28;20036;-78
2021/12/12 00:33:09;;;;;;;49.63;16.42;;;;;;;;;;5077028;28;20507;-78
2021/12/12 00:35:34;;;;;;;28.90;14.35;;;;;;;;;;5077237;28;20028;-77
2021/12/12 00:38:03;;;;;;;32.22;14.75;;;;;;;;;;5085526;28;20107;-77
2021/12/12 00:40:30;;;;;;;55.80;17.38;;;;;;;;;;5082165;28;20028;-77
2021/12/12 00:42:57;;;;;;;60.30;19.00;;;;;;;;;;5082342;28;20123;-78
2021/12/12 00:45:22;;;;;;;74.43;26.98;;;;;;;;;;5077254;28;20463;-78
2021/12/12 00:47:48;;;;;;;84.57;25.48;;;;;;;;;;5076960;28;20032;-78
2021/12/12 00:50:32;;;;;;;58.15;21.63;;;;;;;;;;5059208;28;20521;-77
2021/12/12 00:52:59;;;;;;;36.92;16.25;;;;;;;;;;5077414;28;20039;-78
2021/12/12 00:55:24;;;;;;;26.52;14.40;;;;;;;;;;5092552;28;20071;-77
2021/12/12 00:57:53;;;;;;;21.98;13.43;;;;;;;;;;5075924;28;20451;-77
2021/12/12 01:00:21;;;;;;;29.58;14.25;;;;;;;;;;5077471;28;20085;-77
2021/12/12 01:02:47;;;;;;;26.95;15.30;;;;;;;;;;5076510;28;20020;-77
2021/12/12 01:05:12;;;;;;;33.88;19.33;;;;;;;;;;5076597;28;20074;-78
2021/12/12 01:07:39;;;;;;;40.22;21.90;;;;;;;;;;5076859;28;20049;-78
2021/12/12 01:10:27;;;;;;;41.10;24.83;;;;;;;;;;5076511;28;20063;-78
2021/12/12 01:12:53;;;;;;;52.60;33.22;;;;;;;;;;5075588;28;20029;-78
2021/12/12 01:15:32;;;;;;;50.97;34.22;;;;;;;;;;5075365;28;20392;-77
2021/12/12 01:18:00;;;;;;;46.35;28.80;;;;;;;;;;5076187;28;20024;-78
2021/12/12 01:20:30;;;;;;;40.40;26.17;;;;;;;;;;5077171;28;20367;-77
2021/12/12 01:22:59;;;;;;;35.65;22.90;;;;;;;;;;5076701;28;20060;-78
2021/12/12 01:25:27;;;;;;;31.10;20.38;;;;;;;;;;5076564;28;20070;-78
2021/12/12 01:27:53;;;;;;;30.98;19.48;;;;;;;;;;5076493;28;20063;-77
2021/12/12 01:30:19;;;;;;;36.38;23.40;;;;;;;;;;5075023;28;20068;-77
2021/12/12 01:32:46;;;;;;;35.40;24.15;;;;;;;;;;5076115;28;20029;-77
2021/12/12 01:35:17;;;;;;;29.35;19.58;;;;;;;;;;5076412;28;20037;-77
2021/12/12 01:37:51;;;;;;;30.23;20.42;;;;;;;;;;5075056;28;20048;-78
2021/12/12 01:40:22;;;;;;;32.45;20.05;;;;;;;;;;5075409;28;20043;-78
2021/12/12 01:43:03;;;;;;;26.70;17.77;;;;;;;;;;5075970;28;20035;-78
2021/12/12 01:45:33;;;;;;;21.92;14.55;;;;;;;;;;5074837;28;20037;-77
2021/12/12 01:48:04;;;;;;;22.63;13.70;;;;;;;;;;5076195;28;20041;-78
2021/12/12 01:50:31;;;;;;;13.27;9.00;;;;;;;;;;5074861;28;20387;-77
2021/12/12 01:52:56;;;;;;;15.35;10.45;;;;;;;;;;5075864;28;20455;-78
2021/12/12 01:55:32;;;;;;;8.48;6.60;;;;;;;;;;5074904;28;20068;-77
2021/12/12 01:57:59;;;;;;;7.78;6.43;;;;;;;;;;5075874;28;20366;-77
2021/12/12 02:00:27;;;;;;;7.85;5.35;;;;;;;;;;5041410;28;20035;-78
2021/12/12 02:02:53;;;;;;;5.65;4.90;;;;;;;;;;5074490;28;20028;-77
2021/12/12 02:05:19;;;;;;;6.35;5.20;;;;;;;;;;5058093;28;20379;-77
2021/12/12 02:07:50;;;;;;;6.43;4.97;;;;;;;;;;5075412;28;20387;-78
2021/12/12 02:10:18;;;;;;;11.18;5.70;;;;;;;;;;5058688;28;20029;-78
2021/12/12 02:12:44;;;;;;;8.10;5.72;;;;;;;;;;5075897;28;20453;-78
2021/12/12 02:15:10;;;;;;;8.90;6.30;;;;;;;;;;5074157;28;20017;-77
2021/12/12 02:17:41;;;;;;;10.50;4.93;;;;;;;;;;5075585;28;20063;-77
2021/12/12 02:20:27;;;;;;;19.35;8.93;;;;;;;;;;5074544;28;20036;-77
2021/12/12 02:36:22;;;;;;;4.28;2.00;;;;;;;;;;5060046;28;20039;-77
2021/12/12 02:38:48;;;;;;;2.90;1.90;;;;;;;;;;5075553;28;20032;-77
2021/12/12 02:41:15;;;;;;;1.90;1.75;;;;;;;;;;5075114;28;20436;-77
2021/12/12 02:43:43;;;;;;;4.20;1.70;;;;;;;;;;5073458;28;20373;-77
2021/12/12 02:46:11;;;;;;;1.63;1.25;;;;;;;;;;5073077;28;20432;-77
2021/12/12 02:48:39;;;;;;;2.83;1.42;;;;;;;;;;5073489;28;20127;-77
2021/12/12 02:51:08;;;;;;;2.15;1.70;;;;;;;;;;5073617;28;20043;-77
2021/12/12 02:53:39;;;;;;;3.47;2.20;;;;;;;;;;5073700;28;20038;-77
2021/12/12 02:56:12;;;;;;;2.63;2.03;;;;;;;;;;5074828;28;20028;-78
2021/12/12 02:58:38;;;;;;;1.33;1.15;;;;;;;;;;5074698;28;20050;-77
2021/12/12 03:01:12;;;;;;;1.77;1.20;;;;;;;;;;5073623;28;20024;-77
2021/12/12 03:03:38;;;;;;;1.42;1.20;;;;;;;;;;5073585;28;20074;-77
2021/12/12 03:06:05;;;;;;;3.58;1.23;;;;;;;;;;5074516;28;20459;-77
2021/12/12 03:08:31;;;;;;;3.35;1.40;;;;;;;;;;5074528;28;20047;-77
2021/12/12 03:10:56;;;;;;;4.40;1.25;;;;;;;;;;5074596;28;20450;-78
2021/12/12 03:13:23;;;;;;;3.25;1.73;;;;;;;;;;5074616;28;20032;-78
2021/12/12 03:15:48;;;;;;;1.35;1.08;;;;;;;;;;5073473;28;20359;-77
2021/12/12 03:18:19;;;;;;;2.53;1.20;;;;;;;;;;5074607;28;20027;-77
2021/12/12 03:20:47;;;;;;;;;;;;;;;;;;5073645;28;20029;-77
2021/12/12 03:23:19;;;;;;;2.35;1.35;;;;;;;;;;5056773;28;20389;-78
2021/12/12 03:25:45;;;;;;;3.50;1.25;;;;;;;;;;5074443;28;20071;-78
2021/12/12 03:28:13;;;;;;;1.85;1.15;;;;;;;;;;5056238;28;20067;-77
2021/12/12 03:30:39;;;;;;;1.33;1.20;;;;;;;;;;5090008;28;20036;-77
2021/12/12 03:33:05;;;;;;;2.20;1.20;;;;;;;;;;5074030;28;20363;-77
2021/12/12 03:35:30;;;;;;;1.15;0.88;;;;;;;;;;5073567;28;20108;-77
2021/12/12 03:37:56;;;;;;;1.52;1.08;;;;;;;;;;5056439;28;20472;-77
2021/12/12 03:40:24;;;;;;;1.02;0.90;;;;;;;;;;5072960;28;20036;-77
2021/12/12 03:42:51;;;;;;;2.03;1.33;;;;;;;;;;5072902;28;20037;-77
2021/12/12 03:45:16;;;;;;;2.35;1.48;;;;;;;;;;5073876;28;20067;-77
2021/12/12 03:47:46;;;;;;;1.90;1.70;;;;;;;;;;5078832;28;20032;-77
2021/12/12 03:50:18;;;;;;;2.58;1.35;;;;;;;;;;5096605;28;20094;-77
2021/12/12 03:52:44;;;;;;;1.13;0.60;;;;;;;;;;5074181;28;20098;-77
2021/12/12 03:55:10;;;;;;;0.52;0.50;;;;;;;;;;5056415;28;20032;-77
2021/12/12 03:57:36;;;;;;;1.85;0.90;;;;;;;;;;5040819;28;20036;-76
2021/12/12 04:00:03;;;;;;;2.90;1.10;;;;;;;;;;5078494;28;20492;-77
2021/12/12 04:02:29;;;;;;;1.17;0.70;;;;;;;;;;5078539;28;20071;-78
2021/12/12 04:04:54;;;;;;;1.48;0.82;;;;;;;;;;5077935;28;20460;-78
2021/12/12 04:07:22;;;;;;;1.58;0.77;;;;;;;;;;5077686;28;20470;-77
2021/12/12 04:09:48;;;;;;;0.93;0.85;;;;;;;;;;5077678;28;20037;-77
2021/12/12 04:12:14;;;;;;;1.00;0.90;;;;;;;;;;5076530;28;20082;-77
2021/12/12 04:14:40;;;;;;;2.85;1.30;;;;;;;;;;5059933;28;20039;-78
2021/12/12 04:17:08;;;;;;;3.45;2.22;;;;;;;;;;5077672;28;20361;-77
2021/12/12 04:19:33;;;;;;;3.08;1.27;;;;;;;;;;5076474;28;20032;-78
2021/12/12 04:21:59;;;;;;;2.55;1.27;;;;;;;;;;5077250;28;20047;-78
2021/12/12 04:24:27;;;;;;;5.85;1.17;;;;;;;;;;5076348;28;20032;-77
2021/12/12 04:26:53;;;;;;;1.95;0.90;;;;;;;;;;5060080;28;20029;-77
2021/12/12 04:29:24;;;;;;;1.65;1.00;;;;;;;;;;5077593;28;20036;-78
2021/12/12 04:31:52;;;;;;;0.77;0.70;;;;;;;;;;5077638;28;20036;-78
2021/12/12 04:34:20;;;;;;;0.77;0.70;;;;;;;;;;5077286;28;20036;-77
2021/12/12 04:36:46;;;;;;;1.05;0.80;;;;;;;;;;5077844;28;20056;-78
2021/12/12 04:39:15;;;;;;;1.25;0.88;;;;;;;;;;5077064;28;20032;-78
2021/12/12 04:41:41;;;;;;;1.08;0.75;;;;;;;;;;5077547;28;20127;-77
2021/12/12 04:44:07;;;;;;;1.10;0.80;;;;;;;;;;5076381;28;20473;-77
2021/12/12 04:49:55;;;;;;;2.38;0.88;;;;;;;;;;5076218;28;20103;-78
2021/12/12 04:52:13;;;;;;;1.75;0.95;;;;;;;;;;5076984;28;20027;-77
2021/12/12 04:54:49;;;;;;;1.63;1.10;;;;;;;;;;5058833;28;20021;-77
2021/12/12 04:57:28;;;;;;;2.17;1.30;;;;;;;;;;5075778;28;20044;-78
2021/12/12 05:00:22;;;;;;;2.30;1.40;;;;;;;;;;5076249;28;20032;-77
2021/12/12 05:03:02;;;;;;;3.22;1.30;;;;;;;;;;5075050;28;20049;-78
2021/12/12 05:05:39;;;;;;;2.38;1.60;;;;;;;;;;5059244;28;20133;-77
2021/12/12 05:08:10;;;;;;;4.75;1.85;;;;;;;;;;5074517;28;20362;-77
2021/12/12 05:10:38;;;;;;;;;;;;;;;;;;5077548;28;20040;-78
2021/12/12 05:13:08;;;;;;;3.20;1.50;;;;;;;;;;5076867;28;20319;-77
2021/12/12 05:15:35;;;;;;;2.90;1.40;;;;;;;;;;5075466;28;20474;-77
2021/12/12 05:18:08;;;;;;;2.33;0.77;;;;;;;;;;5075689;28;20032;-77
2021/12/12 05:20:42;;;;;;;1.63;0.88;;;;;;;;;;5076702;28;20035;-78
2021/12/12 05:23:11;;;;;;;7.32;1.13;;;;;;;;;;5076159;28;20024;-78
2021/12/12 05:25:47;;;;;;;1.98;1.38;;;;;;;;;;5076269;28;20024;-77
2021/12/12 05:28:13;;;;;;;1.65;1.10;;;;;;;;;;5075364;28;20120;-78
2021/12/12 05:30:40;;;;;;;1.55;1.00;;;;;;;;;;5058347;28;20437;-76
2021/12/12 05:33:05;;;;;;;2.45;1.42;;;;;;;;;;5076267;28;20036;-77
2021/12/12 05:35:32;;;;;;;2.95;1.40;;;;;;;;;;5075181;28;20040;-76
2021/12/12 05:37:59;;;;;;;2.63;1.27;;;;;;;;;;5075006;28;20531;-77
2021/12/12 05:40:26;;;;;;;2.70;1.25;;;;;;;;;;5058582;28;20111;-77
2021/12/12 05:42:52;;;;;;;3.22;1.20;;;;;;;;;;5058390;28;20431;-77
2021/12/12 05:45:18;;;;;;;1.77;1.05;;;;;;;;;;5075181;28;20423;-79
2021/12/12 05:47:44;;;;;;;1.65;1.27;;;;;;;;;;5058493;28;20029;-78
2021/12/12 05:50:15;;;;;;;1.45;1.15;;;;;;;;;;5058176;28;20032;-77
2021/12/12 05:52:42;;;;;;;2.30;1.38;;;;;;;;;;5074383;28;20032;-78
2021/12/12 05:55:08;;;;;;;1.27;1.00;;;;;;;;;;5074538;28;20032;-77
2021/12/12 05:57:33;;;;;;;1.02;0.90;;;;;;;;;;5074648;28;20086;-78
2021/12/12 05:59:59;;;;;;;2.17;1.40;;;;;;;;;;5057847;28;20025;-78
2021/12/12 06:02:25;;;;;;;2.60;1.20;;;;;;;;;;5075641;28;20371;-78
2021/12/12 06:04:54;;;;;;;3.08;1.65;;;;;;;;;;5074492;28;20460;-76
2021/12/12 06:07:19;;;;;;;5.75;1.85;;;;;;;;;;5058035;28;20052;-76
2021/12/12 06:09:46;;;;;;;4.20;1.83;;;;;;;;;;5074743;28;20035;-78
2021/12/12 06:12:12;;;;;;;5.80;2.72;;;;;;;;;;5074525;28;20379;-77
2021/12/12 06:14:38;;;;;;;11.10;4.95;;;;;;;;;;5074272;28;20040;-78
2021/12/12 06:17:06;;;;;;;3.45;2.00;;;;;;;;;;5057699;28;20040;-77
2021/12/12 06:19:32;;;;;;;2.45;1.42;;;;;;;;;;5057606;28;20367;-77
2021/12/12 06:21:58;;;;;;;2.85;1.67;;;;;;;;;;5057306;28;20037;-78
2021/12/12 06:24:25;;;;;;;3.88;1.80;;;;;;;;;;5075425;28;20451;-78
2021/12/12 06:26:51;;;;;;;4.28;1.60;;;;;;;;;;5074302;28;20107;-78
2021/12/12 06:29:16;;;;;;;2.53;1.45;;;;;;;;;;5074042;28;20499;-77
2021/12/12 06:31:44;;;;;;;2.72;1.70;;;;;;;;;;5075441;28;20040;-77
2021/12/12 06:34:10;;;;;;;2.80;1.60;;;;;;;;;;5073932;28;20077;-78
2021/12/12 06:36:36;;;;;;;4.88;2.30;;;;;;;;;;5075084;28;20089;-75
2021/12/12 06:39:02;;;;;;;3.33;1.83;;;;;;;;;;5073875;28;20024;-79
2021/12/12 06:41:28;;;;;;;8.30;3.40;;;;;;;;;;5075215;28;20033;-78
2021/12/12 06:43:56;;;;;;;6.22;2.53;;;;;;;;;;5074865;28;20044;-79
2021/12/12 06:46:21;;;;;;;14.23;4.07;;;;;;;;;;5041009;28;20051;-76
2021/12/12 06:48:47;;;;;;;14.02;3.58;;;;;;;;;;5074136;28;20037;-76
2021/12/12 06:51:12;;;;;;;12.18;2.72;;;;;;;;;;5058056;28;20115;-77
2021/12/12 06:53:40;;;;;;;6.65;2.15;;;;;;;;;;5076529;28;20036;-76
2021/12/12 06:56:06;;;;;;;8.70;2.78;;;;;;;;;;5074088;28;20474;-78
2021/12/12 06:58:31;;;;;;;8.93;2.90;;;;;;;;;;5057132;28;20056;-77
2021/12/12 07:01:00;;;;;;;6.00;1.98;;;;;;;;;;5071637;28;20028;-78
2021/12/12 07:03:26;;;;;;;6.60;2.83;;;;;;;;;;5075771;28;20489;-77
2021/12/12 07:05:51;;;;;;;9.38;3.00;;;;;;;;;;5074356;28;20028;-76
2021/12/12 07:08:17;;;;;;;7.85;3.17;;;;;;;;;;5074274;28;20044;-77
2021/12/12 07:10:44;;;;;;;9.02;3.42;;;;;;;;;;5073273;28;20056;-77
2021/12/12 07:13:09;;;;;;;9.82;3.53;;;;;;;;;;5074867;28;20056;-76
2021/12/12 07:15:38;;;;;;;6.03;2.28;;;;;;;;;;5056875;28;20060;-76
2021/12/12 07:18:09;;;;;;;11.93;3.28;;;;;;;;;;5075492;28;20029;-77
2021/12/12 07:20:34;;;;;;;;;;;;;;;;;;5056746;28;20036;-77
2021/12/12 07:23:05;;;;;;;6.15;2.70;;;;;;;;;;5073114;28;19913;-78
2021/12/12 07:25:33;;;;;;;4.60;2.40;;;;;;;;;;5073347;28;20036;-78
2021/12/12 07:28:00;;;;;;;13.02;3.38;;;;;;;;;;5073309;28;20440;-77
2021/12/12 07:30:25;;;;;;;7.72;3.03;;;;;;;;;;5074413;28;20036;-77
2021/12/12 07:32:51;;;;;;;14.30;4.10;;;;;;;;;;5073054;28;20036;-77
2021/12/12 07:35:16;;;;;;;6.57;3.00;;;;;;;;;;5056877;28;20028;-77
2021/12/12 07:37:42;;;;;;;10.30;3.63;;;;;;;;;;5039580;28;20444;-78
2021/12/12 07:40:09;;;;;;;22.05;5.40;;;;;;;;;;5056508;28;20120;-76
2021/12/12 07:42:35;;;;;;;35.80;6.05;;;;;;;;;;5073245;28;20040;-77
2021/12/12 07:45:01;;;;;;;28.08;5.07;;;;;;;;;;5073005;28;20037;-78
2021/12/12 07:47:28;;;;;;;26.95;5.75;;;;;;;;;;5072909;28;20036;-78
2021/12/12 07:49:54;;;;;;;20.65;5.28;;;;;;;;;;5073820;28;20040;-77
2021/12/12 07:52:22;;;;;;;29.48;6.45;;;;;;;;;;5074066;28;20029;-77
2021/12/12 07:54:49;;;;;;;17.27;4.32;;;;;;;;;;5075029;28;20025;-77
2021/12/12 07:57:15;;;;;;;18.05;4.63;;;;;;;;;;5074058;28;20107;-77
2021/12/12 07:59:41;;;;;;;11.88;4.05;;;;;;;;;;5074074;28;20408;-78
2021/12/12 08:02:06;;;;;;;17.50;4.20;;;;;;;;;;5074212;28;20028;-78
2021/12/12 08:04:33;;;;;;;19.45;4.32;;;;;;;;;;5089579;28;20036;-78
2021/12/12 08:07:00;;;;;;;11.80;3.95;;;;;;;;;;5073787;28;20045;-78
2021/12/12 08:09:26;;;;;;;9.63;3.17;;;;;;;;;;5056242;28;20062;-77
2021/12/12 08:11:51;;;;;;;12.90;3.25;;;;;;;;;;5072960;28;20024;-77
2021/12/12 08:14:21;;;;;;;13.40;3.05;;;;;;;;;;5074413;28;20029;-77
2021/12/12 08:16:47;;;;;;;12.73;3.58;;;;;;;;;;5056032;28;20081;-77
2021/12/12 08:19:12;;;;;;;9.55;2.25;;;;;;;;;;5073930;28;20028;-77
2021/12/12 08:21:38;;;;;;;6.65;3.22;;;;;;;;;;5056448;28;20432;-77
2021/12/12 08:24:08;;;;;;;6.32;3.05;;;;;;;;;;5055693;28;20112;-78
2021/12/12 08:26:35;;;;;;;14.13;4.82;;;;;;;;;;5073967;28;20036;-77
2021/12/12 08:29:01;;;;;;;10.00;3.03;;;;;;;;;;5072670;28;20052;-77
2021/12/12 08:31:27;;;;;;;10.57;3.45;;;;;;;;;;5072048;28;20066;-79
2021/12/12 08:33:52;;;;;;;7.90;3.08;;;;;;;;;;5055781;28;20024;-78
2021/12/12 08:36:18;;;;;;;17.73;4.85;;;;;;;;;;5056918;28;20025;-77
2021/12/12 08:38:43;;;;;;;21.30;5.40;;;;;;;;;;5072405;28;20367;-78
2021/12/12 08:41:09;;;;;;;9.40;4.03;;;;;;;;;;5055808;28;20039;-78
2021/12/12 08:43:34;;;;;;;5.38;2.78;;;;;;;;;;5090688;28;20032;-77
2021/12/12 08:46:05;;;;;;;8.60;3.05;;;;;;;;;;5077116;28;20460;-77
2021/12/12 08:48:32;;;;;;;15.65;5.22;;;;;;;;;;5059560;28;20028;-78
2021/12/12 08:51:05;;;;;;;22.45;6.57;;;;;;;;;;5075758;28;20036;-75
2021/12/12 08:53:31;;;;;;;21.20;6.15;;;;;;;;;;5076971;28;20399;-77
2021/12/12 08:55:57;;;;;;;19.17;4.93;;;;;;;;;;5076148;28;20036;-76
2021/12/12 08:58:26;;;;;;;16.48;5.10;;;;;;;;;;5093840;28;20123;-78
2021/12/12 09:00:59;;;;;;;7.38;2.90;;;;;;;;;;5075700;28;20036;-78
2021/12/12 09:03:40;;;;;;;20.60;4.20;;;;;;;;;;5077028;28;20028;-78
2021/12/12 09:06:06;;;;;;;19.17;5.88;;;;;;;;;;5075815;28;20032;-77
2021/12/12 09:08:40;;;;;;;23.08;8.02;;;;;;;;;;5075644;28;20036;-78
2021/12/12 09:11:11;;;;;;;12.23;4.50;;;;;;;;;;5076575;28;20095;-78
2021/12/12 09:13:48;;;;;;;11.77;4.05;;;;;;;;;;5075785;28;20476;-77
2021/12/12 09:16:24;;;;;;;19.80;4.85;;;;;;;;;;5075270;28;20036;-78
2021/12/12 09:19:02;;;;;;;14.85;5.50;;;;;;;;;;5075981;28;20024;-78
2021/12/12 09:21:47;;;;;;;9.30;3.92;;;;;;;;;;5076458;28;20033;-77
2021/12/12 09:24:31;;;;;;;8.57;3.35;;;;;;;;;;5075734;28;20035;-78
2021/12/12 09:27:05;;;;;;;13.75;4.82;;;;;;;;;;5075314;28;20024;-78
2021/12/12 09:29:58;;;;;;;7.85;3.85;;;;;;;;;;5075246;28;20417;-77
2021/12/12 09:32:25;;;;;;;17.15;6.32;;;;;;;;;;5070173;28;20135;-77
2021/12/12 09:35:28;;;;;;;12.07;4.30;;;;;;;;;;5076612;28;20462;-77
2021/12/12 09:38:01;;;;;;;12.88;5.43;;;;;;;;;;5075304;28;20040;-78
2021/12/12 09:40:49;;;;;;;13.57;6.47;;;;;;;;;;5076791;28;20024;-78
2021/12/12 09:43:41;;;;;;;9.73;4.53;;;;;;;;;;5076374;28;20142;-78
2021/12/12 09:46:17;;;;;;;8.63;4.40;;;;;;;;;;5077601;28;20036;-78
2021/12/12 09:52:23;;;;;;;8.25;4.45;;;;;;;;;;5075917;28;20367;-77
2021/12/12 09:54:56;;;;;;;6.10;3.45;;;;;;;;;;5075917;28;20409;-77
2021/12/12 09:57:39;;;;;;;7.40;3.80;;;;;;;;;;5075055;28;20037;-78
2021/12/12 10:00:29;;;;;;;5.40;2.90;;;;;;;;;;5076690;28;20032;-77
2021/12/12 10:03:07;;;;;;;5.38;2.60;;;;;;;;;;5076062;28;20119;-77
2021/12/12 10:06:25;;;;;;;8.40;3.85;;;;;;;;;;5075960;28;20039;-77
2021/12/12 10:08:56;;;;;;;10.73;3.95;;;;;;;;;;5042048;28;20041;-77
2021/12/12 10:11:45;;;;;;;10.63;5.00;;;;;;;;;;5076175;28;20497;-75
2021/12/12 10:14:18;;;;;;;13.35;5.57;;;;;;;;;;5078335;28;20089;-77
2021/12/12 10:16:47;;;;;;;11.43;4.63;;;;;;;;;;5074540;28;20458;-78
2021/12/12 10:19:39;;;;;;;12.77;4.90;;;;;;;;;;5074207;28;20036;-78
2021/12/12 10:22:26;;;;;;;14.73;5.43;;;;;;;;;;5075504;28;20029;-77
2021/12/12 10:25:08;;;;;;;10.45;4.90;;;;;;;;;;5074831;28;20044;-77
2021/12/12 10:27:43;;;;;;;9.20;4.88;;;;;;;;;;5058736;28;20036;-77
2021/12/12 10:30:32;;;;;;;10.45;4.88;;;;;;;;;;5058142;28;20085;-78
2021/12/12 10:33:22;;;;;;;9.48;4.25;;;;;;;;;;5057959;28;20028;-77
2021/12/12 10:35:58;;;;;;;8.30;4.28;;;;;;;;;;5073786;28;20120;-77
2021/12/12 10:38:29;;;;;;;11.50;4.75;;;;;;;;;;5075283;28;20036;-77
2021/12/12 10:41:03;;;;;;;13.43;5.18;;;;;;;;;;5057390;28;20028;-77
2021/12/12 10:43:56;;;;;;;12.57;4.95;;;;;;;;;;5076226;28;20452;-77
2021/12/12 10:46:29;;;;;;;12.23;5.53;;;;;;;;;;5069931;28;20047;-77
2021/12/12 10:49:07;;;;;;;9.00;3.97;;;;;;;;;;5075878;28;20027;-78
2021/12/12 10:51:42;;;;;;;7.72;3.97;;;;;;;;;;5075955;28;20063;-78
2021/12/12 10:54:23;;;;;;;8.20;3.65;;;;;;;;;;5076082;28;20387;-77
2021/12/12 10:57:14;;;;;;;10.50;5.13;;;;;;;;;;5076612;28;20054;-78
2021/12/12 10:59:52;;;;;;;8.65;4.20;;;;;;;;;;5071394;28;20048;-77
2021/12/12 11:02:18;;;;;;;5.53;3.38;;;;;;;;;;5075976;28;20032;-78
2021/12/12 11:04:49;;;;;;;10.52;4.97;;;;;;;;;;5074775;28;20455;-78
2021/12/12 11:07:27;;;;;;;12.10;4.90;;;;;;;;;;5072796;28;20052;-77
2021/12/12 11:10:06;;;;;;;12.68;6.20;;;;;;;;;;5073569;28;20119;-78
2021/12/12 11:12:53;;;;;;;10.40;5.47;;;;;;;;;;5073454;28;20042;-77
2021/12/12 11:16:20;;;;;;;11.20;5.22;;;;;;;;;;5058476;28;20020;-77
2021/12/12 11:18:49;;;;;;;16.08;6.85;;;;;;;;;;5040585;28;20068;-77
2021/12/12 11:21:23;;;;;;;9.80;5.05;;;;;;;;;;5074267;28;20055;-77
2021/12/12 11:24:00;;;;;;;25.83;9.15;;;;;;;;;;5073414;28;20375;-79
2021/12/12 11:26:28;;;;;;;30.23;12.57;;;;;;;;;;5074520;28;20348;-78
2021/12/12 11:29:00;;;;;;;122.20;24.90;;;;;;;;;;5074246;28;20028;-77
2021/12/12 11:31:45;;;;;;;177.32;32.33;;;;;;;;;;5039854;28;20043;-77
2021/12/12 11:34:11;;;;;;;126.07;25.60;;;;;;;;;;5074413;28;20032;-78
2021/12/12 11:37:18;;;;;;;64.32;13.48;;;;;;;;;;5056283;28;20035;-77
2021/12/12 11:40:11;;;;;;;67.55;21.85;;;;;;;;;;5073038;28;20047;-77
2021/12/12 11:42:59;;;;;;;57.13;18.05;;;;;;;;;;5073520;28;20105;-78
2021/12/12 11:45:38;;;;;;;37.60;14.35;;;;;;;;;;5056519;28;20082;-77
2021/12/12 11:48:19;;;;;;;35.90;15.68;;;;;;;;;;5074959;28;20039;-77
2021/12/12 11:51:03;;;;;;;;;;;;;;;;;;5074478;28;20130;-79
2021/12/12 11:53:44;;;;;;;28.70;10.52;;;;;;;;;;5074632;28;19916;-78
2021/12/12 11:56:21;;;;;;;;;;;;;;;;;;5042033;28;20443;-76
2021/12/12 11:59:18;;;;;;;52.38;17.55;;;;;;;;;;5077805;28;20294;-78
2021/12/12 12:02:01;;;;;;;27.15;10.00;;;;;;;;;;5077608;28;20040;-77
2021/12/12 12:04:42;;;;;;;23.85;10.05;;;;;;;;;;5075845;28;20375;-78
2021/12/12 12:07:19;;;;;;;17.52;7.82;;;;;;;;;;5074002;28;20072;-77
2021/12/12 12:09:53;;;;;;;17.50;7.93;;;;;;;;;;5077709;28;20032;-77
2021/12/12 12:12:30;;;;;;;23.85;8.73;;;;;;;;;;5057230;28;20033;-78
2021/12/12 12:15:13;;;;;;;19.17;7.20;;;;;;;;;;5072810;28;20522;-76
2021/12/12 12:17:59;;;;;;;18.88;8.70;;;;;;;;;;5073726;28;20024;-77
2021/12/12 12:20:38;;;;;;;21.20;8.77;;;;;;;;;;5077553;28;20036;-77
2021/12/12 12:23:54;;;;;;;14.80;7.10;;;;;;;;;;5076452;28;20138;-77
2021/12/12 12:29:26;;;;;;;20.77;9.48;;;;;;;;;;5077116;28;20031;-78
2021/12/12 12:32:04;;;;;;;19.45;7.93;;;;;;;;;;5078129;28;20029;-78
2021/12/12 12:35:07;;;;;;;36.70;10.82;;;;;;;;;;5077352;28;20039;-78
2021/12/12 12:38:10;;;;;;;31.50;10.98;;;;;;;;;;5077369;28;20101;-77
2021/12/12 12:41:23;;;;;;;29.83;10.65;;;;;;;;;;5077445;28;20044;-77
2021/12/12 12:44:26;;;;;;;28.05;10.85;;;;;;;;;;5075216;28;20037;-77
2021/12/12 12:47:28;;;;;;;32.97;11.48;;;;;;;;;;5077194;28;20039;-77
2021/12/12 12:50:31;;;;;;;39.47;11.50;;;;;;;;;;5078161;28;20035;-78
2021/12/12 12:53:17;;;;;;;31.33;10.57;;;;;;;;;;5077422;28;20056;-77
2021/12/12 12:56:00;;;;;;;27.15;10.95;;;;;;;;;;5076141;28;20028;-77
2021/12/12 12:58:25;;;;;;;45.75;15.32;;;;;;;;;;5077617;28;20024;-78
2021/12/12 13:00:56;;;;;;;44.08;14.93;;;;;;;;;;5076954;28;20090;-78
2021/12/12 13:04:09;;;;;;;30.38;12.38;;;;;;;;;;5077786;28;20415;-78
2021/12/12 13:06:48;;;;;;;35.05;13.38;;;;;;;;;;5074223;28;20051;-77
2021/12/12 13:09:21;;;;;;;24.35;11.43;;;;;;;;;;5058147;28;20440;-77
2021/12/12 13:12:07;;;;;;;20.38;10.02;;;;;;;;;;5064926;28;20049;-78
2021/12/12 13:14:59;;;;;;;23.48;10.65;;;;;;;;;;5056317;28;20041;-78
2021/12/12 13:17:52;;;;;;;24.25;10.80;;;;;;;;;;5049183;28;20037;-78
2021/12/12 13:20:32;;;;;;;24.73;10.63;;;;;;;;;;5057366;28;20408;-78
2021/12/12 13:23:14;;;;;;;25.80;10.23;;;;;;;;;;5057341;28;20029;-78
2021/12/12 13:25:49;;;;;;;31.20;12.00;;;;;;;;;;5069297;28;20272;-77
2021/12/12 13:28:26;;;;;;;32.25;13.77;;;;;;;;;;5045012;28;20037;-77
2021/12/12 13:31:05;;;;;;;25.13;12.43;;;;;;;;;;5057887;28;20056;-78
2021/12/12 13:33:42;;;;;;;24.60;11.55;;;;;;;;;;5057072;28;20111;-78
2021/12/12 13:36:44;;;;;;;31.92;13.43;;;;;;;;;;5054988;28;20029;-77
2021/12/12 13:39:24;;;;;;;36.10;15.38;;;;;;;;;;5056013;28;20025;-78
2021/12/12 13:42:06;;;;;;;48.53;20.08;;;;;;;;;;5055488;28;20082;-78
2021/12/12 13:44:53;;;;;;;48.78;19.38;;;;;;;;;;5040548;28;20071;-77
2021/12/12 13:47:51;;;;;;;44.53;17.70;;;;;;;;;;5056462;28;20155;-77
2021/12/12 13:50:27;;;;;;;30.45;12.23;;;;;;;;;;5038054;28;20068;-79
2021/12/12 13:53:06;;;;;;;29.23;13.10;;;;;;;;;;5055062;28;20380;-77
2021/12/12 13:55:52;;;;;;;29.70;11.63;;;;;;;;;;5038601;28;20115;-79
2021/12/12 13:58:46;;;;;;;24.17;10.65;;;;;;;;;;5055775;28;20029;-77
2021/12/12 14:01:16;;;;;;;30.13;12.52;;;;;;;;;;5055938;28;20376;-79
2021/12/12 14:03:58;;;;;;;35.05;14.30;;;;;;;;;;5055672;28;20020;-79
2021/12/12 14:06:25;;;;;;;37.08;14.85;;;;;;;;;;5056353;28;20060;-77
2021/12/12 14:09:00;;;;;;;42.65;16.65;;;;;;;;;;5057819;28;20424;-77
2021/12/12 14:11:31;;;;;;;48.53;17.02;;;;;;;;;;5074689;28;20502;-77
2021/12/12 14:14:18;;;;;;;48.10;18.88;;;;;;;;;;5041995;28;20115;-77
2021/12/12 14:16:48;;;;;;;45.60;17.80;;;;;;;;;;5075479;28;20047;-78
2021/12/12 14:19:27;;;;;;;43.13;16.02;;;;;;;;;;5057829;28;20029;-78
2021/12/12 14:21:53;;;;;;;46.53;16.43;;;;;;;;;;5074511;28;20025;-78
2021/12/12 14:24:18;;;;;;;46.88;17.92;;;;;;;;;;5040747;28;20361;-77
2021/12/12 14:26:45;;;;;;;50.60;17.10;;;;;;;;;;5057499;28;20170;-77
2021/12/12 14:29:13;;;;;;;52.60;18.08;;;;;;;;;;5090943;28;20120;-78
2021/12/12 14:31:43;;;;;;;37.13;11.07;;;;;;;;;;5075116;28;20439;-77
2021/12/12 14:34:10;;;;;;;42.22;15.35;;;;;;;;;;5058383;28;20028;-78
2021/12/12 14:36:36;;;;;;;57.75;20.02;;;;;;;;;;5074130;28;20063;-78
2021/12/12 14:39:02;;;;;;;60.35;20.88;;;;;;;;;;5057987;28;20040;-77
2021/12/12 14:41:37;;;;;;;58.83;20.30;;;;;;;;;;5074201;28;20028;-77
2021/12/12 14:44:09;;;;;;;41.28;16.33;;;;;;;;;;5073718;28;20150;-78
2021/12/12 14:46:40;;;;;;;46.45;18.42;;;;;;;;;;5057558;28;20024;-78
2021/12/12 14:49:14;;;;;;;36.35;14.10;;;;;;;;;;5074145;28;20028;-78
2021/12/12 14:51:50;;;;;;;38.88;15.85;;;;;;;;;;5057374;28;20399;-77
2021/12/12 14:54:15;;;;;;;41.97;15.13;;;;;;;;;;5058072;28;20039;-76
2021/12/12 14:56:44;;;;;;;45.25;18.33;;;;;;;;;;5073476;28;20033;-77
2021/12/12 14:59:12;;;;;;;45.95;21.88;;;;;;;;;;5057380;28;20033;-78
2021/12/12 15:01:57;;;;;;;45.10;19.27;;;;;;;;;;5057154;28;20037;-78
2021/12/12 15:04:29;;;;;;;37.70;16.73;;;;;;;;;;5073943;28;20040;-77
2021/12/12 15:06:59;;;;;;;36.97;15.73;;;;;;;;;;5057166;28;20048;-77
2021/12/12 15:09:30;;;;;;;48.03;16.87;;;;;;;;;;5056804;28;20032;-77
2021/12/12 15:12:16;;;;;;;35.25;13.32;;;;;;;;;;5074615;28;20444;-78
2021/12/12 15:14:48;;;;;;;45.10;15.80;;;;;;;;;;5073995;28;20111;-78
2021/12/12 15:17:16;;;;;;;38.30;14.73;;;;;;;;;;5057233;28;20028;-78
2021/12/12 15:19:51;;;;;;;37.03;13.23;;;;;;;;;;5056902;28;20071;-77
2021/12/12 15:22:21;;;;;;;37.60;14.10;;;;;;;;;;5073393;28;20039;-77
2021/12/12 15:24:52;;;;;;;34.90;12.38;;;;;;;;;;5073487;28;20037;-78
2021/12/12 15:27:33;;;;;;;35.33;13.10;;;;;;;;;;5074187;28;20032;-77
2021/12/12 15:29:59;;;;;;;31.75;12.82;;;;;;;;;;5058204;28;20470;-78